Terminal Aerodrome Forecast
Issued by NWS North Platte, NE

Home | Current Version | Previous Version | Graphics & Text | Print | Product List | Glossary On
Versions: 1 2 3 4 5 6 7 8 9 10 11 12 13 14 15 16 17 18 19 20 21
000
FTUS43 KLBF 281615 AAB
TAFVTN
TAF AMD
KVTN 281615Z 2816/2912 08014KT P6SM VCSH FEW025 BKN040 OVC070
      TEMPO 2816/2820 BKN025 OVC045
     FM282300 04012KT P6SM VCSH OVC060
     FM290000 04011KT P6SM OVC070
     FM290400 03007KT P6SM OVC090=

USA.gov is the U.S. government's official web portal to all federal, state and local government web resources and services.